Time;durP1;ratioP1;P1;durP2;ratioP2;P2;SDS_P1;SDS_P2;PMS_P1;PMS_P2;Temp;Humidity;BMP_temperature;BMP_pressure;BME280_temperature;BME280_humidity;BME280_pressure;Samples;Min_cycle;Max_cycle;Signal;HPM_P1;HPM_P2
2022/09/06 00:00:37;;;;;;;3.08;2.50;;;;;;;;;;5001473;28;20224;-55
2022/09/06 00:03:03;;;;;;;3.28;2.75;;;;;;;;;;5016773;28;20192;-56
2022/09/06 00:05:31;;;;;;;2.80;2.38;;;;;;;;;;5021792;28;20249;-54
2022/09/06 00:08:01;;;;;;;6.25;2.78;;;;;;;;;;5010144;28;20228;-54
2022/09/06 00:10:29;;;;;;;3.95;2.72;;;;;;;;;;5000837;28;20195;-54
2022/09/06 00:12:59;;;;;;;3.80;2.78;;;;;;;;;;5009592;28;20250;-56
2022/09/06 00:15:25;;;;;;;3.65;2.88;;;;;;;;;;5005094;28;20680;-54
2022/09/06 00:17:52;;;;;;;3.90;2.60;;;;;;;;;;5012848;28;20781;-53
2022/09/06 00:20:18;;;;;;;4.93;3.35;;;;;;;;;;5010208;28;20575;-51
2022/09/06 00:22:45;;;;;;;4.20;2.80;;;;;;;;;;5018267;28;20195;-52
2022/09/06 00:25:11;;;;;;;2.70;2.50;;;;;;;;;;5008554;28;20205;-51
2022/09/06 00:27:37;;;;;;;3.53;2.95;;;;;;;;;;5010238;28;20250;-53
2022/09/06 00:30:04;;;;;;;3.75;2.78;;;;;;;;;;5000864;28;20196;-50
2022/09/06 00:32:31;;;;;;;3.95;2.95;;;;;;;;;;5013070;28;20325;-50
2022/09/06 00:34:58;;;;;;;4.28;2.97;;;;;;;;;;5007423;28;20196;-56
2022/09/06 00:37:24;;;;;;;3.90;2.70;;;;;;;;;;5008798;28;20263;-50
2022/09/06 00:39:50;;;;;;;4.28;2.63;;;;;;;;;;5008077;28;20223;-50
2022/09/06 00:42:17;;;;;;;3.50;2.50;;;;;;;;;;5018345;28;20200;-53
2022/09/06 00:44:43;;;;;;;3.45;2.85;;;;;;;;;;5006618;28;20196;-52
2022/09/06 00:47:10;;;;;;;3.63;2.78;;;;;;;;;;5017358;28;20199;-54
2022/09/06 00:49:40;;;;;;;2.65;2.45;;;;;;;;;;5007254;28;20243;-54
2022/09/06 00:52:10;;;;;;;3.25;2.78;;;;;;;;;;5021424;28;20196;-52
2022/09/06 00:54:37;;;;;;;3.63;2.42;;;;;;;;;;5007526;28;20565;-53
2022/09/06 00:57:03;;;;;;;3.33;2.60;;;;;;;;;;5006610;28;20270;-51
2022/09/06 00:59:32;;;;;;;3.22;2.40;;;;;;;;;;5012717;28;20364;-54
2022/09/06 01:01:58;;;;;;;4.55;2.90;;;;;;;;;;5029221;28;20196;-52
2022/09/06 01:04:25;;;;;;;3.15;2.72;;;;;;;;;;4999346;28;20207;-52
2022/09/06 01:07:00;;;;;;;3.38;2.60;;;;;;;;;;5011286;28;20246;-51
2022/09/06 01:09:36;;;;;;;4.05;2.85;;;;;;;;;;5011416;28;20216;-54
2022/09/06 01:12:34;;;;;;;3.17;2.72;;;;;;;;;;5004225;28;20202;-54
2022/09/06 01:15:10;;;;;;;5.13;2.55;;;;;;;;;;5016954;28;20196;-53
2022/09/06 01:17:36;;;;;;;4.22;2.63;;;;;;;;;;5006597;28;20220;-51
2022/09/06 01:20:27;;;;;;;3.58;2.75;;;;;;;;;;5005800;28;20495;-51
2022/09/06 01:23:32;;;;;;;3.80;2.90;;;;;;;;;;5001064;28;20192;-50
2022/09/06 01:26:37;;;;;;;3.53;2.58;;;;;;;;;;5003219;28;20258;-50
2022/09/06 01:29:22;;;;;;;4.07;2.88;;;;;;;;;;4998940;28;20269;-54
2022/09/06 01:31:55;;;;;;;3.97;2.95;;;;;;;;;;5002202;28;20197;-50
2022/09/06 01:34:30;;;;;;;3.05;2.65;;;;;;;;;;5020387;28;20266;-50
2022/09/06 01:37:00;;;;;;;3.67;3.05;;;;;;;;;;5006842;28;20203;-50
2022/09/06 01:39:37;;;;;;;3.28;2.58;;;;;;;;;;5018260;28;20219;-54
2022/09/06 01:42:11;;;;;;;16.27;3.83;;;;;;;;;;5005671;28;20734;-54
2022/09/06 01:44:40;;;;;;;8.05;2.72;;;;;;;;;;5007364;28;20198;-55
2022/09/06 01:47:22;;;;;;;12.68;2.78;;;;;;;;;;5019083;28;20196;-54
2022/09/06 01:49:51;;;;;;;8.48;2.95;;;;;;;;;;5006998;28;20628;-56
2022/09/06 01:52:33;;;;;;;3.72;2.72;;;;;;;;;;5003492;28;20738;-56
2022/09/06 01:55:30;;;;;;;8.77;2.50;;;;;;;;;;5006610;28;20207;-55
2022/09/06 01:58:18;;;;;;;6.00;2.80;;;;;;;;;;5005236;28;20281;-55
2022/09/06 02:01:02;;;;;;;4.32;2.50;;;;;;;;;;5002068;28;20224;-55
2022/09/06 02:03:38;;;;;;;3.17;2.40;;;;;;;;;;5023337;28;20207;-54
2022/09/06 02:06:13;;;;;;;4.38;2.80;;;;;;;;;;5018319;28;20200;-54
2022/09/06 02:08:45;;;;;;;3.50;2.58;;;;;;;;;;5018253;28;20293;-55
2022/09/06 02:11:13;;;;;;;6.68;2.50;;;;;;;;;;5005040;28;20237;-55
2022/09/06 02:13:49;;;;;;;2.67;2.13;;;;;;;;;;5004662;28;20196;-55
2022/09/06 02:16:19;;;;;;;5.07;2.30;;;;;;;;;;5002940;28;20254;-55
2022/09/06 02:19:03;;;;;;;6.32;2.15;;;;;;;;;;5004240;28;20266;-56
2022/09/06 02:21:34;;;;;;;4.50;2.20;;;;;;;;;;4993525;28;20208;-56
2022/09/06 02:24:04;;;;;;;3.03;1.90;;;;;;;;;;5000388;28;20212;-54
2022/09/06 02:26:34;;;;;;;5.15;1.90;;;;;;;;;;5000036;28;20850;-55
2022/09/06 02:29:00;;;;;;;2.55;1.88;;;;;;;;;;5002960;28;20604;-55
2022/09/06 02:31:32;;;;;;;5.47;2.50;;;;;;;;;;5023714;28;20196;-54
2022/09/06 02:33:59;;;;;;;2.55;1.60;;;;;;;;;;5007656;28;20274;-53
2022/09/06 02:36:26;;;;;;;1.90;1.70;;;;;;;;;;5020956;28;20196;-54
2022/09/06 02:38:53;;;;;;;2.83;1.75;;;;;;;;;;5004067;28;20220;-54
2022/09/06 02:41:21;;;;;;;2.45;1.60;;;;;;;;;;5005024;28;20286;-53
2022/09/06 02:43:48;;;;;;;2.30;1.60;;;;;;;;;;5004274;28;20199;-55
2022/09/06 02:46:14;;;;;;;2.33;1.80;;;;;;;;;;5006507;28;20205;-54
2022/09/06 02:48:41;;;;;;;2.08;1.30;;;;;;;;;;5007390;28;20239;-54
2022/09/06 02:51:08;;;;;;;1.50;1.35;;;;;;;;;;5002447;28;20688;-52
2022/09/06 02:53:36;;;;;;;4.40;2.03;;;;;;;;;;5004030;28;20259;-52
2022/09/06 02:56:02;;;;;;;1.42;1.33;;;;;;;;;;5002486;28;20246;-51
2022/09/06 02:58:29;;;;;;;3.13;1.58;;;;;;;;;;5006388;28;20220;-50
2022/09/06 03:00:55;;;;;;;1.83;1.38;;;;;;;;;;5019571;28;20231;-50
2022/09/06 03:03:22;;;;;;;1.85;1.30;;;;;;;;;;5010893;28;20478;-52
2022/09/06 03:05:49;;;;;;;2.33;1.50;;;;;;;;;;5010048;28;20673;-52
2022/09/06 03:08:17;;;;;;;3.80;1.50;;;;;;;;;;5007427;28;20312;-54
2022/09/06 03:10:53;;;;;;;1.23;1.13;;;;;;;;;;5010293;28;20197;-50
2022/09/06 03:13:20;;;;;;;2.50;1.58;;;;;;;;;;5008449;28;20255;-49
2022/09/06 03:15:57;;;;;;;2.38;1.63;;;;;;;;;;5007998;28;20673;-52
2022/09/06 03:18:24;;;;;;;1.45;1.35;;;;;;;;;;5007132;28;20220;-51
2022/09/06 03:20:52;;;;;;;3.08;1.40;;;;;;;;;;5011000;28;20226;-53
2022/09/06 03:23:20;;;;;;;2.05;1.35;;;;;;;;;;5002363;28;20212;-53
2022/09/06 03:25:47;;;;;;;2.28;1.63;;;;;;;;;;5007753;28;20207;-51
2022/09/06 03:28:13;;;;;;;1.58;1.27;;;;;;;;;;5009316;28;20256;-52
2022/09/06 03:30:42;;;;;;;2.35;1.50;;;;;;;;;;5007605;28;20200;-50
2022/09/06 03:33:09;;;;;;;1.73;1.35;;;;;;;;;;5010380;28;20227;-51
2022/09/06 03:35:35;;;;;;;2.28;1.52;;;;;;;;;;5002014;28;20573;-52
2022/09/06 03:38:02;;;;;;;2.25;1.60;;;;;;;;;;5009792;28;20227;-53
2022/09/06 03:40:28;;;;;;;1.40;1.23;;;;;;;;;;5010177;28;20224;-50
2022/09/06 03:42:54;;;;;;;3.80;1.60;;;;;;;;;;5009012;28;20250;-53
2022/09/06 03:45:21;;;;;;;1.75;1.35;;;;;;;;;;5009493;28;20204;-53
2022/09/06 03:47:47;;;;;;;3.60;1.35;;;;;;;;;;5007825;28;20699;-54
2022/09/06 03:50:14;;;;;;;1.70;1.40;;;;;;;;;;5005855;28;20200;-54
2022/09/06 03:52:40;;;;;;;2.45;1.63;;;;;;;;;;5004857;28;20200;-55
2022/09/06 03:55:07;;;;;;;1.73;1.63;;;;;;;;;;5006339;28;20196;-54
2022/09/06 03:57:33;;;;;;;3.75;2.05;;;;;;;;;;5006268;28;20232;-55
2022/09/06 04:00:00;;;;;;;2.17;1.67;;;;;;;;;;5009163;28;20711;-55
2022/09/06 04:02:26;;;;;;;2.03;1.65;;;;;;;;;;5004996;28;20656;-54
2022/09/06 04:04:54;;;;;;;2.15;1.48;;;;;;;;;;5009639;28;20200;-54
2022/09/06 04:07:21;;;;;;;1.42;1.33;;;;;;;;;;5008979;28;20206;-54
2022/09/06 04:09:48;;;;;;;2.90;1.67;;;;;;;;;;5006248;28;20189;-55
2022/09/06 04:12:14;;;;;;;1.88;1.70;;;;;;;;;;5007877;28;20254;-55
2022/09/06 04:14:41;;;;;;;1.77;1.65;;;;;;;;;;5003889;28;20291;-55
2022/09/06 04:17:07;;;;;;;2.20;1.77;;;;;;;;;;5006979;28;20231;-55
2022/09/06 04:19:33;;;;;;;2.42;1.58;;;;;;;;;;5007844;28;20278;-56
2022/09/06 04:22:00;;;;;;;2.15;1.95;;;;;;;;;;5006871;28;20718;-57
2022/09/06 04:24:26;;;;;;;1.90;1.80;;;;;;;;;;5002681;28;20212;-55
2022/09/06 04:26:52;;;;;;;2.45;1.88;;;;;;;;;;5004176;28;20209;-55
2022/09/06 04:29:19;;;;;;;2.90;1.80;;;;;;;;;;5009285;28;20278;-55
2022/09/06 04:31:45;;;;;;;3.30;2.17;;;;;;;;;;5005438;28;20192;-54
2022/09/06 04:34:12;;;;;;;2.83;1.80;;;;;;;;;;5005636;28;20680;-50
2022/09/06 04:36:38;;;;;;;2.65;1.95;;;;;;;;;;5004205;28;20204;-53
2022/09/06 04:39:05;;;;;;;2.45;1.90;;;;;;;;;;5006294;28;20762;-54
2022/09/06 04:41:32;;;;;;;3.30;2.00;;;;;;;;;;5007406;28;20212;-52
2022/09/06 04:43:58;;;;;;;3.03;2.13;;;;;;;;;;5005626;28;20251;-52
2022/09/06 04:46:26;;;;;;;2.20;1.60;;;;;;;;;;5008229;28;20204;-53
2022/09/06 04:48:54;;;;;;;2.42;2.15;;;;;;;;;;5009111;28;20220;-56
2022/09/06 04:51:21;;;;;;;2.78;2.15;;;;;;;;;;5003336;28;20701;-54
2022/09/06 04:53:47;;;;;;;5.80;2.67;;;;;;;;;;5001445;28;20193;-55
2022/09/06 04:56:16;;;;;;;1.75;1.65;;;;;;;;;;5004102;28;20561;-54
2022/09/06 04:58:43;;;;;;;2.30;1.70;;;;;;;;;;5005692;28;20216;-55
2022/09/06 05:01:10;;;;;;;2.97;1.70;;;;;;;;;;5007066;28;20746;-55
2022/09/06 05:03:36;;;;;;;2.33;1.70;;;;;;;;;;5006117;28;20231;-50
2022/09/06 05:06:04;;;;;;;2.17;1.88;;;;;;;;;;5000765;28;20212;-55
2022/09/06 05:08:31;;;;;;;4.03;1.80;;;;;;;;;;5003486;28;20262;-55
2022/09/06 05:10:57;;;;;;;2.67;1.88;;;;;;;;;;5006972;28;20196;-56
2022/09/06 05:13:23;;;;;;;4.03;2.00;;;;;;;;;;5008342;28;20204;-56
2022/09/06 05:15:50;;;;;;;4.30;2.08;;;;;;;;;;4998851;28;20200;-57
2022/09/06 05:18:16;;;;;;;3.75;2.10;;;;;;;;;;5004189;28;20224;-55
2022/09/06 05:20:43;;;;;;;6.95;2.78;;;;;;;;;;4999356;28;20224;-53
2022/09/06 05:23:09;;;;;;;3.42;2.20;;;;;;;;;;4995385;28;20585;-53
2022/09/06 05:25:35;;;;;;;3.97;2.13;;;;;;;;;;4992707;28;21159;-50
2022/09/06 05:28:02;;;;;;;6.00;2.17;;;;;;;;;;5007895;28;20213;-54
2022/09/06 05:30:28;;;;;;;5.20;2.08;;;;;;;;;;5007462;28;20192;-55
2022/09/06 05:32:54;;;;;;;4.93;2.30;;;;;;;;;;5004163;28;20244;-55
2022/09/06 05:35:21;;;;;;;2.35;2.10;;;;;;;;;;5008160;28;20227;-55
2022/09/06 05:37:47;;;;;;;3.80;2.13;;;;;;;;;;5006720;28;20274;-56
2022/09/06 05:40:14;;;;;;;5.45;2.22;;;;;;;;;;5009366;28;20220;-56
2022/09/06 05:42:40;;;;;;;5.65;2.30;;;;;;;;;;5008249;28;20203;-57
2022/09/06 05:45:07;;;;;;;6.90;2.47;;;;;;;;;;5007346;28;20285;-54
2022/09/06 05:47:34;;;;;;;4.25;2.78;;;;;;;;;;5001740;28;20211;-54
2022/09/06 05:50:02;;;;;;;5.60;2.50;;;;;;;;;;5003552;28;20199;-57
2022/09/06 05:52:28;;;;;;;3.33;2.35;;;;;;;;;;5004356;28;20196;-55
2022/09/06 05:54:55;;;;;;;5.93;2.42;;;;;;;;;;5008167;28;20257;-55
2022/09/06 05:57:21;;;;;;;3.50;2.55;;;;;;;;;;5003147;28;20204;-58
2022/09/06 05:59:47;;;;;;;3.20;2.10;;;;;;;;;;5006728;28;20243;-54
2022/09/06 06:02:14;;;;;;;3.88;2.15;;;;;;;;;;5008538;28;20220;-53
2022/09/06 06:04:40;;;;;;;3.38;2.60;;;;;;;;;;5005877;28;20196;-54
2022/09/06 06:07:07;;;;;;;3.15;2.38;;;;;;;;;;5007955;28;20282;-57
2022/09/06 06:09:33;;;;;;;5.88;3.00;;;;;;;;;;5007070;28;20234;-57
2022/09/06 06:11:59;;;;;;;5.57;2.72;;;;;;;;;;5008286;28;20204;-55
2022/09/06 06:14:26;;;;;;;5.25;3.35;;;;;;;;;;5007731;28;20254;-57
2022/09/06 06:16:52;;;;;;;3.78;2.20;;;;;;;;;;5021085;28;20201;-54
2022/09/06 06:19:18;;;;;;;1.85;1.75;;;;;;;;;;5006915;28;20225;-54
2022/09/06 06:21:45;;;;;;;4.40;2.35;;;;;;;;;;5004594;28;20224;-55
2022/09/06 06:24:11;;;;;;;2.28;1.88;;;;;;;;;;5002391;28;20216;-55
2022/09/06 06:26:38;;;;;;;2.55;2.10;;;;;;;;;;5006231;28;20243;-57
2022/09/06 06:29:08;;;;;;;3.03;2.20;;;;;;;;;;5005713;28;20224;-55
2022/09/06 06:31:35;;;;;;;3.30;2.13;;;;;;;;;;5001228;28;20200;-57
2022/09/06 06:34:02;;;;;;;2.65;1.90;;;;;;;;;;4997698;28;20230;-55
2022/09/06 06:36:32;;;;;;;9.55;2.10;;;;;;;;;;5001897;28;20201;-55
2022/09/06 06:39:00;;;;;;;2.92;2.20;;;;;;;;;;5005805;28;20220;-58
2022/09/06 06:41:28;;;;;;;4.97;2.47;;;;;;;;;;5004542;28;20225;-57
2022/09/06 06:43:56;;;;;;;3.13;1.95;;;;;;;;;;5009599;28;20200;-53
2022/09/06 06:46:27;;;;;;;4.22;2.08;;;;;;;;;;5008989;28;20208;-56
2022/09/06 06:48:54;;;;;;;4.00;2.00;;;;;;;;;;5010935;28;20224;-55
2022/09/06 06:51:23;;;;;;;4.53;2.30;;;;;;;;;;5003528;28;20205;-57
2022/09/06 06:53:50;;;;;;;3.20;1.90;;;;;;;;;;5006710;28;20207;-57
2022/09/06 06:56:18;;;;;;;4.93;2.30;;;;;;;;;;5004660;28;20200;-55
2022/09/06 06:58:45;;;;;;;4.93;2.10;;;;;;;;;;5004576;28;20220;-58
2022/09/06 07:01:12;;;;;;;3.75;2.20;;;;;;;;;;5010829;28;20735;-57
2022/09/06 07:03:39;;;;;;;4.28;2.15;;;;;;;;;;5011095;28;20200;-58
2022/09/06 07:06:05;;;;;;;2.45;2.00;;;;;;;;;;5006935;28;20270;-57
2022/09/06 07:08:33;;;;;;;5.57;1.98;;;;;;;;;;5011628;28;20228;-56
2022/09/06 07:11:00;;;;;;;3.33;1.90;;;;;;;;;;5002887;28;20204;-57
2022/09/06 07:13:26;;;;;;;3.47;1.90;;;;;;;;;;5003957;28;20551;-56
2022/09/06 07:16:08;;;;;;;1.90;1.65;;;;;;;;;;5008823;28;20208;-56
2022/09/06 07:18:35;;;;;;;2.65;1.77;;;;;;;;;;5009305;28;20220;-56
2022/09/06 07:21:01;;;;;;;2.67;1.80;;;;;;;;;;5018992;28;20216;-58
2022/09/06 07:23:48;;;;;;;3.78;1.63;;;;;;;;;;5007474;28;20208;-58
2022/09/06 07:26:29;;;;;;;4.10;1.67;;;;;;;;;;5007822;28;20262;-57
2022/09/06 07:28:58;;;;;;;2.15;1.63;;;;;;;;;;5009238;28;20230;-56
2022/09/06 07:31:26;;;;;;;3.55;1.80;;;;;;;;;;5007112;28;20648;-54
2022/09/06 07:34:13;;;;;;;3.03;1.77;;;;;;;;;;5000929;28;20290;-57
2022/09/06 07:36:39;;;;;;;5.13;1.80;;;;;;;;;;5007878;28;20621;-56
2022/09/06 07:39:06;;;;;;;2.80;1.65;;;;;;;;;;5010931;28;20297;-56
2022/09/06 07:41:32;;;;;;;2.40;1.70;;;;;;;;;;5010415;28;20643;-57
2022/09/06 07:43:58;;;;;;;3.10;1.75;;;;;;;;;;5007973;28;20246;-56
2022/09/06 07:46:25;;;;;;;2.53;2.00;;;;;;;;;;5004229;28;20691;-57
2022/09/06 07:48:51;;;;;;;1.90;1.50;;;;;;;;;;5009374;28;20344;-56
2022/09/06 07:51:19;;;;;;;2.67;1.50;;;;;;;;;;5011293;28;20730;-58
2022/09/06 07:53:50;;;;;;;7.90;2.33;;;;;;;;;;5002824;28;20193;-58
2022/09/06 07:56:32;;;;;;;4.18;1.70;;;;;;;;;;5009219;28;20757;-57
2022/09/06 07:58:59;;;;;;;2.58;1.80;;;;;;;;;;5008327;28;20220;-55
2022/09/06 08:01:36;;;;;;;3.22;1.98;;;;;;;;;;5005683;28;20220;-58
2022/09/06 08:04:08;;;;;;;4.07;1.88;;;;;;;;;;5005244;28;20207;-58
2022/09/06 08:06:40;;;;;;;5.32;2.00;;;;;;;;;;5009071;28;20215;-57
2022/09/06 08:09:26;;;;;;;2.97;2.00;;;;;;;;;;5006601;28;20248;-56
2022/09/06 08:11:53;;;;;;;3.75;2.10;;;;;;;;;;5009280;28;20856;-55
2022/09/06 08:14:19;;;;;;;5.47;2.10;;;;;;;;;;5008708;28;20668;-56
2022/09/06 08:16:46;;;;;;;3.70;2.10;;;;;;;;;;5008193;28;20196;-56
2022/09/06 08:19:12;;;;;;;3.00;2.00;;;;;;;;;;5005685;28;20216;-53
2022/09/06 08:21:39;;;;;;;5.95;2.13;;;;;;;;;;5003932;28;20220;-54
2022/09/06 08:24:07;;;;;;;4.68;2.20;;;;;;;;;;5009722;28;20215;-52
2022/09/06 08:26:35;;;;;;;3.38;2.22;;;;;;;;;;4997506;28;20209;-57
2022/09/06 08:29:05;;;;;;;6.18;2.10;;;;;;;;;;5001126;28;20378;-54
2022/09/06 08:31:32;;;;;;;5.18;1.85;;;;;;;;;;5003795;28;20196;-56
2022/09/06 08:34:00;;;;;;;4.80;2.17;;;;;;;;;;5003489;28;20219;-56
2022/09/06 08:36:30;;;;;;;4.90;2.53;;;;;;;;;;5007264;28;20538;-56
2022/09/06 08:38:57;;;;;;;2.97;2.08;;;;;;;;;;5008753;28;20220;-57
2022/09/06 08:41:26;;;;;;;3.65;2.20;;;;;;;;;;5009014;28;20769;-56
2022/09/06 08:43:56;;;;;;;4.10;1.80;;;;;;;;;;5005606;28;20196;-56
2022/09/06 08:47:09;;;;;;;2.65;1.80;;;;;;;;;;5007635;28;20254;-56
2022/09/06 08:49:38;;;;;;;3.47;1.73;;;;;;;;;;5004798;28;20200;-59
2022/09/06 08:52:34;;;;;;;3.30;1.70;;;;;;;;;;5008630;28;20672;-59
2022/09/06 08:55:20;;;;;;;2.28;1.73;;;;;;;;;;5003411;28;20573;-59
2022/09/06 08:58:14;;;;;;;2.80;1.80;;;;;;;;;;5006742;28;20286;-59
2022/09/06 09:00:47;;;;;;;1.65;1.50;;;;;;;;;;5008480;28;20692;-59
2022/09/06 09:03:16;;;;;;;3.72;1.90;;;;;;;;;;5006910;28;20203;-58
2022/09/06 09:05:46;;;;;;;1.90;1.58;;;;;;;;;;5005631;28;20211;-59
2022/09/06 09:08:22;;;;;;;1.83;1.52;;;;;;;;;;5003501;28;20232;-60
2022/09/06 09:11:06;;;;;;;3.08;1.80;;;;;;;;;;5005864;28;20582;-57
2022/09/06 09:13:38;;;;;;;2.50;1.60;;;;;;;;;;5016840;28;20204;-59
2022/09/06 09:16:05;;;;;;;3.25;1.70;;;;;;;;;;5004879;28;20204;-58
2022/09/06 09:18:34;;;;;;;2.13;1.60;;;;;;;;;;5006743;28;20232;-58
2022/09/06 09:21:01;;;;;;;1.40;1.30;;;;;;;;;;5002958;28;20482;-59
2022/09/06 09:23:29;;;;;;;1.80;1.70;;;;;;;;;;5019602;28;20653;-55
2022/09/06 09:25:59;;;;;;;2.65;1.50;;;;;;;;;;5008349;28;20207;-58
2022/09/06 09:28:26;;;;;;;2.55;1.52;;;;;;;;;;5007621;28;20223;-59
2022/09/06 09:30:55;;;;;;;2.90;1.65;;;;;;;;;;5004580;28;20245;-59
2022/09/06 09:33:29;;;;;;;2.08;1.35;;;;;;;;;;5008070;28;20636;-57
2022/09/06 09:36:01;;;;;;;1.80;1.50;;;;;;;;;;5001723;28;20210;-57
2022/09/06 09:38:41;;;;;;;10.32;2.22;;;;;;;;;;4993751;28;20223;-59
2022/09/06 09:41:07;;;;;;;3.80;1.80;;;;;;;;;;5005454;28;20196;-59
2022/09/06 09:43:39;;;;;;;5.47;1.90;;;;;;;;;;5005997;28;20208;-58
2022/09/06 09:46:22;;;;;;;6.00;1.70;;;;;;;;;;5023417;28;20266;-56
2022/09/06 09:49:03;;;;;;;2.70;1.60;;;;;;;;;;5007413;28;20219;-59
2022/09/06 09:51:32;;;;;;;5.60;2.03;;;;;;;;;;4999171;28;20202;-57
2022/09/06 09:54:04;;;;;;;7.93;2.20;;;;;;;;;;5006902;28;20250;-57
2022/09/06 09:56:42;;;;;;;7.10;2.15;;;;;;;;;;5004066;28;20224;-57
2022/09/06 09:59:35;;;;;;;10.27;3.30;;;;;;;;;;5021141;28;20219;-56
2022/09/06 10:02:25;;;;;;;8.60;2.20;;;;;;;;;;4985128;28;20259;-57
2022/09/06 10:04:59;;;;;;;4.57;1.90;;;;;;;;;;5019950;28;20214;-55
2022/09/06 10:07:26;;;;;;;3.00;1.75;;;;;;;;;;5007210;28;20703;-54
2022/09/06 10:09:55;;;;;;;2.80;1.70;;;;;;;;;;5006667;28;20266;-57
2022/09/06 10:12:35;;;;;;;2.80;1.73;;;;;;;;;;5007927;28;20224;-57
2022/09/06 10:15:01;;;;;;;3.78;1.73;;;;;;;;;;5005449;28;20246;-57
2022/09/06 10:17:32;;;;;;;4.15;1.98;;;;;;;;;;5010501;28;20224;-56
2022/09/06 10:20:11;;;;;;;5.05;2.20;;;;;;;;;;5009233;28;20683;-58
2022/09/06 10:23:08;;;;;;;3.40;1.85;;;;;;;;;;4998739;28;20585;-56
2022/09/06 10:25:51;;;;;;;4.70;2.15;;;;;;;;;;5011056;28;20283;-57
2022/09/06 10:28:35;;;;;;;4.72;2.15;;;;;;;;;;5025355;28;20647;-56
2022/09/06 10:31:27;;;;;;;2.78;2.08;;;;;;;;;;5005502;28;20200;-56
2022/09/06 10:34:08;;;;;;;3.65;2.20;;;;;;;;;;5009669;28;20200;-58
2022/09/06 10:36:39;;;;;;;2.60;1.90;;;;;;;;;;5010800;28;20692;-56
2022/09/06 10:39:21;;;;;;;3.88;2.00;;;;;;;;;;5007091;28;20695;-57
2022/09/06 10:42:07;;;;;;;3.15;2.00;;;;;;;;;;5012488;28;20675;-57
2022/09/06 10:44:49;;;;;;;4.97;2.15;;;;;;;;;;5023724;28;20208;-56
2022/09/06 10:47:15;;;;;;;2.97;1.73;;;;;;;;;;5028815;28;20437;-58
2022/09/06 10:49:44;;;;;;;5.38;2.10;;;;;;;;;;5009144;28;21009;-58
2022/09/06 10:52:27;;;;;;;3.40;1.85;;;;;;;;;;5008177;28;20716;-57
2022/09/06 10:54:56;;;;;;;2.63;1.98;;;;;;;;;;5004846;28;20549;-57
2022/09/06 10:57:29;;;;;;;5.32;2.13;;;;;;;;;;5009905;28;20695;-52
2022/09/06 11:00:16;;;;;;;4.43;2.03;;;;;;;;;;5003835;28;20200;-59
2022/09/06 11:03:08;;;;;;;2.28;1.90;;;;;;;;;;5004676;28;20274;-59
2022/09/06 11:06:03;;;;;;;3.55;2.03;;;;;;;;;;5008002;28;20232;-53
2022/09/06 11:08:39;;;;;;;3.15;1.98;;;;;;;;;;5005527;28;20219;-57
2022/09/06 11:11:29;;;;;;;1.65;1.55;;;;;;;;;;5017795;28;20208;-59
2022/09/06 11:13:55;;;;;;;2.53;2.00;;;;;;;;;;5010506;28;20204;-59
2022/09/06 11:16:29;;;;;;;3.20;1.83;;;;;;;;;;5004892;28;20200;-59
2022/09/06 11:19:02;;;;;;;2.20;1.80;;;;;;;;;;5007996;28;20223;-55
2022/09/06 11:21:59;;;;;;;3.30;2.05;;;;;;;;;;5006721;28;20246;-57
2022/09/06 11:24:29;;;;;;;4.07;2.08;;;;;;;;;;4998902;28;20204;-57
2022/09/06 11:27:11;;;;;;;3.40;2.17;;;;;;;;;;5009090;28;20815;-58
2022/09/06 11:29:44;;;;;;;2.72;2.03;;;;;;;;;;5004105;28;20208;-57
2022/09/06 11:32:33;;;;;;;3.83;2.15;;;;;;;;;;5006459;28;20193;-59
2022/09/06 11:35:04;;;;;;;3.20;2.00;;;;;;;;;;5009203;28;20209;-58
2022/09/06 11:37:34;;;;;;;3.92;2.00;;;;;;;;;;5004292;28;20227;-59
2022/09/06 11:40:36;;;;;;;2.35;1.90;;;;;;;;;;5003654;28;20192;-58
2022/09/06 11:43:03;;;;;;;3.03;1.98;;;;;;;;;;5003943;28;20219;-58
2022/09/06 11:45:41;;;;;;;2.63;2.25;;;;;;;;;;5011627;28;20196;-59
2022/09/06 11:48:23;;;;;;;3.92;2.58;;;;;;;;;;5001989;28;20228;-56
2022/09/06 11:50:52;;;;;;;5.72;2.05;;;;;;;;;;5000675;28;20211;-59
2022/09/06 11:53:24;;;;;;;5.53;2.00;;;;;;;;;;5008327;28;20204;-57
2022/09/06 11:56:09;;;;;;;2.63;2.03;;;;;;;;;;5008569;28;20232;-57
2022/09/06 11:59:00;;;;;;;3.35;2.00;;;;;;;;;;5005576;28;20220;-58
2022/09/06 12:01:27;;;;;;;2.10;1.90;;;;;;;;;;5001629;28;20577;-57
2022/09/06 12:03:56;;;;;;;2.50;2.03;;;;;;;;;;5009288;28;20216;-57
2022/09/06 12:06:38;;;;;;;2.80;2.03;;;;;;;;;;5005748;28;20702;-58
2022/09/06 12:09:35;;;;;;;3.03;1.90;;;;;;;;;;5000725;28;20269;-58
2022/09/06 12:12:01;;;;;;;3.10;2.05;;;;;;;;;;5010945;28;20668;-57
2022/09/06 12:14:30;;;;;;;2.40;2.08;;;;;;;;;;5004980;28;20200;-58
2022/09/06 12:16:56;;;;;;;3.55;2.03;;;;;;;;;;5010397;28;20548;-58
2022/09/06 12:19:46;;;;;;;2.30;2.08;;;;;;;;;;5008920;28;20223;-57
2022/09/06 12:22:28;;;;;;;3.78;1.88;;;;;;;;;;4994240;28;20224;-59
2022/09/06 12:25:33;;;;;;;2.60;2.00;;;;;;;;;;5004874;28;20213;-59
2022/09/06 12:28:04;;;;;;;3.03;1.80;;;;;;;;;;4947624;28;20265;-58
2022/09/06 12:30:40;;;;;;;5.65;2.10;;;;;;;;;;4948434;28;20698;-58
2022/09/06 12:33:13;;;;;;;2.63;1.80;;;;;;;;;;4977266;28;20204;-56
2022/09/06 12:35:39;;;;;;;2.05;1.80;;;;;;;;;;5006968;28;20734;-57
2022/09/06 12:38:23;;;;;;;4.25;1.80;;;;;;;;;;4999184;28;20738;-58
2022/09/06 12:40:57;;;;;;;3.38;1.92;;;;;;;;;;5008085;28;20204;-57
2022/09/06 12:43:24;;;;;;;1.88;1.75;;;;;;;;;;4999617;28;20227;-58
2022/09/06 12:45:51;;;;;;;2.40;2.00;;;;;;;;;;5018291;28;20197;-58
2022/09/06 12:48:27;;;;;;;1.95;1.65;;;;;;;;;;5008653;28;20228;-56
2022/09/06 12:51:15;;;;;;;2.22;1.50;;;;;;;;;;5007762;28;20203;-56
2022/09/06 12:53:55;;;;;;;5.35;1.92;;;;;;;;;;5001062;28;20207;-55
2022/09/06 12:56:23;;;;;;;3.15;1.95;;;;;;;;;;5008376;28;20208;-58
2022/09/06 12:58:50;;;;;;;3.42;1.85;;;;;;;;;;5003590;28;20243;-57
2022/09/06 13:01:35;;;;;;;2.88;1.92;;;;;;;;;;5008881;28;20196;-57
2022/09/06 13:04:07;;;;;;;2.63;1.90;;;;;;;;;;5023222;28;20219;-58
2022/09/06 13:06:38;;;;;;;2.22;1.45;;;;;;;;;;5005772;28;20208;-57
2022/09/06 13:09:07;;;;;;;2.95;2.00;;;;;;;;;;5013954;28;20229;-56
2022/09/06 13:11:37;;;;;;;3.63;1.85;;;;;;;;;;5013919;28;20205;-57
2022/09/06 13:14:11;;;;;;;3.42;1.92;;;;;;;;;;5015889;28;20270;-58
2022/09/06 13:16:46;;;;;;;4.05;1.58;;;;;;;;;;5008014;28;20195;-58
2022/09/06 13:19:15;;;;;;;5.10;1.60;;;;;;;;;;5006846;28;20220;-57
2022/09/06 13:21:43;;;;;;;2.40;1.80;;;;;;;;;;4998992;28;20607;-54
2022/09/06 13:24:24;;;;;;;3.17;1.77;;;;;;;;;;5004628;28;20212;-56
2022/09/06 13:26:50;;;;;;;2.45;1.73;;;;;;;;;;5007274;28;20257;-58
2022/09/06 13:29:17;;;;;;;1.75;1.60;;;;;;;;;;5004769;28;20282;-57
2022/09/06 13:31:45;;;;;;;1.60;1.50;;;;;;;;;;5001989;28;20259;-56
2022/09/06 13:34:19;;;;;;;2.03;1.70;;;;;;;;;;5008103;28;20196;-58
2022/09/06 13:36:51;;;;;;;4.60;1.75;;;;;;;;;;5008582;28;20253;-58
2022/09/06 13:39:36;;;;;;;2.58;1.60;;;;;;;;;;5008463;28;20234;-57
2022/09/06 13:42:10;;;;;;;2.38;1.77;;;;;;;;;;5006899;28;20211;-57
2022/09/06 13:44:38;;;;;;;1.98;1.80;;;;;;;;;;5004789;28;20258;-57
2022/09/06 13:47:05;;;;;;;2.53;1.70;;;;;;;;;;5007704;28;20201;-58
2022/09/06 13:49:32;;;;;;;2.17;1.88;;;;;;;;;;5009193;28;20282;-58
2022/09/06 13:52:00;;;;;;;4.78;1.95;;;;;;;;;;5002559;28;20556;-56
2022/09/06 13:54:28;;;;;;;3.38;2.15;;;;;;;;;;5006099;28;20304;-57
2022/09/06 13:56:55;;;;;;;2.42;1.98;;;;;;;;;;4999528;28;20204;-58
2022/09/06 13:59:22;;;;;;;2.70;2.00;;;;;;;;;;5007371;28;20375;-58
2022/09/06 14:01:57;;;;;;;5.00;2.00;;;;;;;;;;5005791;28;20695;-59
2022/09/06 14:04:25;;;;;;;4.97;2.05;;;;;;;;;;5009774;28;20282;-59
2022/09/06 14:06:52;;;;;;;4.78;2.30;;;;;;;;;;5002133;28;20259;-59
2022/09/06 14:09:19;;;;;;;5.45;1.80;;;;;;;;;;5002766;28;20691;-59
2022/09/06 14:11:45;;;;;;;3.00;2.20;;;;;;;;;;5008175;28;20208;-59
2022/09/06 14:14:14;;;;;;;2.30;1.85;;;;;;;;;;5008021;28;20204;-57
2022/09/06 14:16:40;;;;;;;3.53;2.03;;;;;;;;;;5004462;28;20201;-58
2022/09/06 14:19:07;;;;;;;5.85;2.10;;;;;;;;;;5008818;28;20216;-59
2022/09/06 14:21:33;;;;;;;2.58;1.98;;;;;;;;;;4998474;28;20204;-58
2022/09/06 14:24:00;;;;;;;2.60;2.03;;;;;;;;;;5006147;28;20228;-59
2022/09/06 14:26:30;;;;;;;3.17;2.08;;;;;;;;;;5007136;28;20227;-58
2022/09/06 14:28:56;;;;;;;2.28;1.85;;;;;;;;;;5007244;28;20738;-58
2022/09/06 14:31:25;;;;;;;2.40;1.70;;;;;;;;;;5008279;28;20206;-58
2022/09/06 14:33:53;;;;;;;5.05;2.08;;;;;;;;;;4998892;28;20196;-58
2022/09/06 14:36:21;;;;;;;3.28;2.03;;;;;;;;;;4999787;28;20205;-58
2022/09/06 14:38:48;;;;;;;4.47;2.22;;;;;;;;;;5006679;28;20252;-58
2022/09/06 14:41:16;;;;;;;3.30;2.20;;;;;;;;;;5007084;28;20200;-56
2022/09/06 14:43:48;;;;;;;7.88;1.90;;;;;;;;;;4993793;28;21516;-56
2022/09/06 14:46:16;;;;;;;3.72;2.20;;;;;;;;;;4999564;28;20243;-58
2022/09/06 14:48:44;;;;;;;4.43;1.98;;;;;;;;;;5008595;28;20220;-57
2022/09/06 14:51:20;;;;;;;3.75;2.75;;;;;;;;;;5003331;28;20251;-58
2022/09/06 14:53:49;;;;;;;3.53;2.50;;;;;;;;;;5006026;28;20309;-57
2022/09/06 14:56:15;;;;;;;3.30;2.35;;;;;;;;;;5007075;28;20208;-59
2022/09/06 14:58:42;;;;;;;4.20;1.83;;;;;;;;;;5010913;28;20220;-55
2022/09/06 15:01:16;;;;;;;2.63;2.20;;;;;;;;;;5010405;28;20676;-56
2022/09/06 15:03:47;;;;;;;6.80;1.98;;;;;;;;;;5004609;28;20591;-58
2022/09/06 15:06:14;;;;;;;3.88;2.15;;;;;;;;;;5013262;28;20200;-57
2022/09/06 15:08:41;;;;;;;3.65;2.00;;;;;;;;;;5009365;28;20274;-56